createdAt,value
2023-03-03T00:00:50.082Z,101046.48
2023-03-03T00:03:27.130Z,101045.23
2023-03-03T00:06:00.009Z,101045.98
2023-03-03T00:08:32.829Z,101045.63
2023-03-03T00:11:06.876Z,101048.11
2023-03-03T00:13:46.044Z,101044.30
2023-03-03T00:16:23.964Z,101040.92
2023-03-03T00:18:56.674Z,101041.56
2023-03-03T00:21:31.801Z,101046.54
2023-03-03T00:24:21.021Z,101038.31
2023-03-03T00:26:55.623Z,101035.13
2023-03-03T00:29:32.297Z,101033.59
2023-03-03T00:32:22.185Z,101032.63
2023-03-03T00:34:55.763Z,101032.42
2023-03-03T00:37:32.822Z,101030.84
2023-03-03T00:40:23.839Z,101029.33
2023-03-03T00:42:58.777Z,101027.85
2023-03-03T00:45:36.369Z,101027.36
2023-03-03T00:48:23.552Z,101032.69
2023-03-03T00:50:57.786Z,101032.65
2023-03-03T00:53:31.298Z,101034.23
2023-03-03T00:56:03.122Z,101035.33
2023-03-03T00:58:34.876Z,101027.55
2023-03-03T01:01:07.932Z,101020.92
2023-03-03T01:03:45.762Z,101018.79
2023-03-03T01:06:17.522Z,101013.79
2023-03-03T01:08:49.428Z,101013.81
2023-03-03T01:11:25.647Z,101015.95
2023-03-03T01:13:57.539Z,101020.94
2023-03-03T01:16:31.423Z,101018.08
2023-03-03T01:19:03.722Z,101009.08
2023-03-03T01:21:36.922Z,101009.33
2023-03-03T01:24:08.768Z,101002.56
2023-03-03T01:26:40.471Z,101003.88
2023-03-03T01:29:12.969Z,101002.84
2023-03-03T01:31:44.703Z,101004.60
2023-03-03T01:34:16.559Z,100997.11
2023-03-03T01:36:48.314Z,100998.20
2023-03-03T01:39:20.215Z,100997.63
2023-03-03T01:41:52.105Z,100991.89
2023-03-03T01:44:24.189Z,100988.63
2023-03-03T01:47:01.063Z,100980.03
2023-03-03T01:49:37.020Z,100978.55
2023-03-03T01:52:15.971Z,100977.14
2023-03-03T01:54:52.569Z,100973.58
2023-03-03T01:57:30.340Z,100971.09
2023-03-03T02:00:03.619Z,100968.64
2023-03-03T02:02:46.860Z,100972.02
2023-03-03T02:05:19.320Z,100978.61
2023-03-03T02:07:49.841Z,100982.46
2023-03-03T02:10:23.657Z,100978.42
2023-03-03T02:12:57.935Z,100973.85
2023-03-03T02:15:32.617Z,100983.83
2023-03-03T02:18:08.181Z,100988.80
2023-03-03T02:20:51.666Z,100999.56
2023-03-03T02:23:28.223Z,101007.01
2023-03-03T02:26:08.523Z,101006.16
2023-03-03T02:28:41.842Z,101005.54
2023-03-03T02:31:16.620Z,100990.36
2023-03-03T02:33:51.095Z,100986.91
2023-03-03T02:36:25.566Z,100990.19
2023-03-03T02:39:04.847Z,100989.77
2023-03-03T02:41:41.323Z,100986.65
2023-03-03T02:44:15.966Z,100993.53
2023-03-03T02:46:49.923Z,101011.86
2023-03-03T02:49:23.586Z,101009.09
2023-03-03T02:51:56.732Z,101007.65
2023-03-03T02:54:30.787Z,101006.22
2023-03-03T02:57:03.731Z,101004.94
2023-03-03T02:59:35.597Z,101002.36
2023-03-03T03:02:13.249Z,100990.92
2023-03-03T03:04:44.786Z,100990.10
2023-03-03T03:07:22.282Z,100997.87
2023-03-03T03:09:54.884Z,101002.35
2023-03-03T03:12:27.136Z,100999.32
2023-03-03T03:14:59.166Z,101000.95
2023-03-03T03:17:31.301Z,101001.73
2023-03-03T03:20:04.285Z,100995.55
2023-03-03T03:22:37.429Z,100991.21
2023-03-03T03:25:10.850Z,100991.48
2023-03-03T03:27:43.023Z,100983.11
2023-03-03T03:30:16.020Z,100981.38
2023-03-03T03:32:48.663Z,100985.55
2023-03-03T03:35:20.809Z,100977.02
2023-03-03T03:37:52.948Z,100981.77
2023-03-03T03:40:26.786Z,100977.27
2023-03-03T03:42:59.049Z,100985.52
2023-03-03T03:45:30.973Z,100984.85
2023-03-03T03:48:03.007Z,100978.90
2023-03-03T03:50:35.484Z,100980.39
2023-03-03T03:53:07.638Z,100974.27
2023-03-03T03:55:39.776Z,100970.20
2023-03-03T03:58:15.149Z,100968.34
2023-03-03T04:00:48.214Z,100971.35
2023-03-03T04:03:18.592Z,100970.67
2023-03-03T04:05:53.279Z,100972.81
2023-03-03T04:08:25.925Z,100965.81
2023-03-03T04:10:58.770Z,100966.28
2023-03-03T04:13:32.008Z,100960.54
2023-03-03T04:16:04.395Z,100963.65
2023-03-03T04:18:36.623Z,100956.98
2023-03-03T04:21:12.078Z,100957.12
2023-03-03T04:23:44.330Z,100960.26
2023-03-03T04:26:16.248Z,100952.13
2023-03-03T04:28:48.852Z,100948.42
2023-03-03T04:31:21.475Z,100940.80
2023-03-03T04:33:54.542Z,100946.44
2023-03-03T04:36:26.803Z,100943.45
2023-03-03T04:38:59.030Z,100939.25
2023-03-03T04:41:31.318Z,100934.95
2023-03-03T04:44:03.547Z,100937.58
2023-03-03T04:46:35.532Z,100939.81
2023-03-03T04:49:12.326Z,100939.61
2023-03-03T04:51:45.333Z,100932.43
2023-03-03T04:54:16.262Z,100935.94
2023-03-03T04:56:51.445Z,100936.40
2023-03-03T04:59:23.948Z,100944.95
2023-03-03T05:01:55.862Z,100942.98
2023-03-03T05:04:27.808Z,100943.18
2023-03-03T05:06:59.845Z,100945.27
2023-03-03T05:09:33.080Z,100946.17
2023-03-03T05:12:05.110Z,100947.42
2023-03-03T05:14:37.232Z,100938.60
2023-03-03T05:17:09.116Z,100942.52
2023-03-03T05:19:41.146Z,100944.75
2023-03-03T05:22:13.044Z,100931.36
2023-03-03T05:24:49.121Z,100927.07
2023-03-03T05:27:21.847Z,100932.83
2023-03-03T05:29:53.925Z,100942.80
2023-03-03T05:32:25.950Z,100940.65
2023-03-03T05:34:57.733Z,100948.12
2023-03-03T05:37:33.411Z,100951.63
2023-03-03T05:40:06.024Z,100946.06
2023-03-03T05:42:37.856Z,100950.67
2023-03-03T05:45:11.714Z,100957.02
2023-03-03T05:47:43.508Z,100964.46
2023-03-03T05:50:16.505Z,100973.14
2023-03-03T05:52:50.814Z,100983.10
2023-03-03T05:55:23.223Z,100984.19
2023-03-03T05:57:56.165Z,100994.80
2023-03-03T06:00:28.183Z,101005.16
2023-03-03T06:03:00.906Z,101007.29
2023-03-03T06:05:33.059Z,101002.79
2023-03-03T06:08:05.122Z,100983.97
2023-03-03T06:10:36.949Z,100968.39
2023-03-03T06:13:09.316Z,100966.38
2023-03-03T06:15:42.540Z,100956.44
2023-03-03T06:18:16.861Z,100966.08
2023-03-03T06:20:54.607Z,100973.06
2023-03-03T06:23:38.873Z,100970.16
2023-03-03T06:26:12.449Z,100971.52
2023-03-03T06:28:46.201Z,100974.58
2023-03-03T06:31:18.285Z,100977.17
2023-03-03T06:33:54.615Z,100988.19
2023-03-03T06:36:26.767Z,100990.66
2023-03-03T06:38:58.582Z,100988.94
2023-03-03T06:41:30.825Z,100995.62
2023-03-03T06:44:02.697Z,100993.95
2023-03-03T06:46:34.969Z,100994.89
2023-03-03T06:49:06.978Z,100993.57
2023-03-03T06:51:40.788Z,100993.52
2023-03-03T06:54:15.550Z,100992.99
2023-03-03T06:56:48.968Z,100987.17
2023-03-03T06:59:22.831Z,100994.86
2023-03-03T07:01:54.856Z,100995.47
2023-03-03T07:04:31.698Z,100991.89
2023-03-03T07:07:15.081Z,100997.01
2023-03-03T07:09:48.893Z,100994.46
2023-03-03T07:12:23.204Z,100991.72
2023-03-03T07:15:01.837Z,100991.98
2023-03-03T07:17:35.310Z,100986.38
2023-03-03T07:20:19.326Z,100994.98
2023-03-03T07:22:52.016Z,101000.45
2023-03-03T07:25:27.946Z,101005.29
2023-03-03T07:28:02.220Z,101006.52
2023-03-03T07:30:34.468Z,101008.79
2023-03-03T07:33:17.579Z,101012.73
2023-03-03T07:35:50.046Z,101002.54
2023-03-03T07:38:30.812Z,101009.79
2023-03-03T07:41:04.871Z,101019.84
2023-03-03T07:43:41.194Z,101022.09
2023-03-03T07:46:31.684Z,101028.33
2023-03-03T07:49:13.530Z,101032.85
2023-03-03T07:51:45.636Z,101028.70
2023-03-03T07:54:36.717Z,101027.92
2023-03-03T07:57:23.818Z,101026.30
2023-03-03T08:00:02.225Z,101031.13
2023-03-03T08:02:48.506Z,101030.64
2023-03-03T08:05:35.798Z,101036.77
2023-03-03T08:08:23.308Z,101028.70
2023-03-03T08:10:56.369Z,101034.82
2023-03-03T08:13:38.170Z,101034.58
2023-03-03T08:16:31.704Z,101035.88
2023-03-03T08:19:06.662Z,101039.39
2023-03-03T08:21:38.609Z,101022.73
2023-03-03T08:24:10.557Z,101034.23
2023-03-03T08:26:42.350Z,101042.55
2023-03-03T08:29:14.178Z,101043.59
2023-03-03T08:31:46.651Z,101046.52
2023-03-03T08:34:18.444Z,101050.77
2023-03-03T08:36:50.836Z,101050.66
2023-03-03T08:39:22.661Z,101047.98
2023-03-03T08:41:54.607Z,101043.13
2023-03-03T08:44:26.763Z,101047.27
2023-03-03T08:46:58.519Z,101043.50
2023-03-03T08:49:30.763Z,101045.77
2023-03-03T08:52:23.335Z,101037.36
2023-03-03T08:54:55.208Z,101033.59
2023-03-03T08:57:26.969Z,101030.88
2023-03-03T08:59:59.109Z,101023.08
2023-03-03T09:02:31.559Z,101022.84
2023-03-03T09:05:03.397Z,101023.70
2023-03-03T09:07:35.408Z,101025.90
2023-03-03T09:10:09.800Z,101017.83
2023-03-03T09:12:44.182Z,101027.48
2023-03-03T09:15:24.134Z,101032.95
2023-03-03T09:17:58.522Z,101040.30
2023-03-03T09:20:38.279Z,101041.30
2023-03-03T09:23:35.057Z,101037.95
2023-03-03T09:26:47.316Z,101039.36
2023-03-03T09:29:29.047Z,101040.35
2023-03-03T09:32:03.303Z,101037.19
2023-03-03T09:34:41.475Z,101033.04
2023-03-03T09:37:25.190Z,101040.57
2023-03-03T09:39:58.498Z,101036.68
2023-03-03T09:42:50.739Z,101036.52
2023-03-03T09:45:40.056Z,101038.26
2023-03-03T09:48:33.979Z,101040.58
2023-03-03T09:51:20.571Z,101031.96
2023-03-03T09:54:08.178Z,101031.40
2023-03-03T09:56:45.018Z,101026.41
2023-03-03T09:59:29.313Z,101026.81
2023-03-03T10:02:20.519Z,101026.27
2023-03-03T10:05:14.647Z,101028.05
2023-03-03T10:07:57.882Z,101026.15
2023-03-03T10:10:46.586Z,101030.17
2023-03-03T10:13:27.509Z,101027.34
2023-03-03T10:16:17.532Z,101027.58
2023-03-03T10:18:59.423Z,101028.56
2023-03-03T10:21:37.185Z,101025.10
2023-03-03T10:24:20.971Z,101030.14
2023-03-03T10:27:13.518Z,101030.29
2023-03-03T10:29:59.987Z,101025.28
2023-03-03T10:32:45.595Z,101026.71
2023-03-03T10:36:06.206Z,101035.26
2023-03-03T10:38:55.670Z,101033.27
2023-03-03T10:41:44.590Z,101030.95
2023-03-03T10:44:33.209Z,101034.40
2023-03-03T10:47:28.392Z,101029.89
2023-03-03T10:50:09.388Z,101029.21
2023-03-03T10:52:49.968Z,101026.65
2023-03-03T10:55:33.548Z,101031.29
2023-03-03T10:58:23.960Z,101030.02
2023-03-03T11:01:05.988Z,101022.11
2023-03-03T11:03:55.736Z,101016.27
2023-03-03T11:06:35.641Z,101014.73
2023-03-03T11:09:16.571Z,101008.64
2023-03-03T11:11:55.741Z,101009.79
2023-03-03T11:14:34.892Z,101001.88
2023-03-03T11:17:17.598Z,100999.27
2023-03-03T11:20:02.704Z,100994.31
2023-03-03T11:22:41.663Z,100992.40
2023-03-03T11:25:28.179Z,100987.95
2023-03-03T11:28:13.887Z,100983.48
2023-03-03T11:31:06.861Z,100980.39
2023-03-03T11:33:45.937Z,100979.60
2023-03-03T11:36:24.177Z,100973.65
2023-03-03T11:39:00.699Z,100983.05
2023-03-03T11:41:39.048Z,100988.14
2023-03-03T11:44:21.659Z,100979.02
2023-03-03T11:46:58.382Z,100981.44
2023-03-03T11:49:37.855Z,100980.95
2023-03-03T11:52:22.618Z,100975.27
2023-03-03T11:55:01.726Z,100973.06
2023-03-03T11:57:39.861Z,100972.61
2023-03-03T12:00:35.204Z,100967.09
2023-03-03T12:03:36.709Z,100969.58
2023-03-03T12:06:20.218Z,100968.11
2023-03-03T12:09:11.729Z,100971.65
2023-03-03T12:11:54.229Z,100963.67
2023-03-03T12:14:45.136Z,100964.53
2023-03-03T12:17:32.234Z,100969.22
2023-03-03T12:20:10.691Z,100965.34
2023-03-03T12:23:05.826Z,100962.09
2023-03-03T12:25:41.791Z,100958.75
2023-03-03T12:28:19.353Z,100951.81
2023-03-03T12:31:13.424Z,100951.73
2023-03-03T12:33:56.783Z,100947.61
2023-03-03T12:37:05.084Z,100945.02
2023-03-03T12:39:46.782Z,100942.49
2023-03-03T12:42:30.556Z,100947.82
2023-03-03T12:45:15.562Z,100944.05
2023-03-03T12:47:51.642Z,100947.30
2023-03-03T12:50:36.825Z,100948.10
2023-03-03T12:53:21.156Z,100952.31
2023-03-03T12:55:57.756Z,100950.92
2023-03-03T12:58:42.544Z,100951.70
2023-03-03T13:01:33.505Z,100946.87
2023-03-03T13:04:13.316Z,100946.38
2023-03-03T13:06:53.891Z,100945.39
2023-03-03T13:09:36.064Z,100950.23
2023-03-03T13:12:32.164Z,100952.20
2023-03-03T13:15:15.996Z,100952.35
2023-03-03T13:17:59.482Z,100956.71
2023-03-03T13:20:41.984Z,100950.52
2023-03-03T13:23:28.989Z,100950.69
2023-03-03T13:26:08.815Z,100945.56
2023-03-03T13:28:48.295Z,100948.65
2023-03-03T13:31:23.261Z,100943.98
2023-03-03T13:33:57.837Z,100939.34
2023-03-03T13:36:36.375Z,100934.43
2023-03-03T13:39:21.035Z,100934.94
2023-03-03T13:41:58.136Z,100930.61
2023-03-03T13:44:37.267Z,100926.89
2023-03-03T13:47:19.903Z,100932.79
2023-03-03T13:50:10.412Z,100925.00
2023-03-03T13:52:53.896Z,100920.88
2023-03-03T13:55:33.340Z,100924.73
2023-03-03T13:58:12.315Z,100927.96
2023-03-03T14:00:58.479Z,100925.41
2023-03-03T14:03:54.462Z,100921.86
2023-03-03T14:06:28.201Z,100910.89
2023-03-03T14:09:16.344Z,100910.09
2023-03-03T14:11:57.631Z,100905.62
2023-03-03T14:14:46.230Z,100908.02
2023-03-03T14:17:28.218Z,100903.20
2023-03-03T14:20:12.736Z,100896.98
2023-03-03T14:22:53.166Z,100900.38
2023-03-03T14:25:25.313Z,100898.39
2023-03-03T14:28:10.628Z,100897.59
2023-03-03T14:30:44.092Z,100893.36
2023-03-03T14:33:27.253Z,100893.73
2023-03-03T14:36:11.292Z,100891.07
2023-03-03T14:38:51.577Z,100886.63
2023-03-03T14:41:37.650Z,100882.65
2023-03-03T14:44:28.327Z,100880.44
2023-03-03T14:47:22.378Z,100881.91
2023-03-03T14:49:55.760Z,100881.11
2023-03-03T14:52:30.280Z,100879.02
2023-03-03T14:55:07.054Z,100877.45
2023-03-03T14:57:47.140Z,100879.46
2023-03-03T15:00:36.128Z,100874.91
2023-03-03T15:03:23.627Z,100876.59
2023-03-03T15:05:58.303Z,100866.69
2023-03-03T15:08:34.963Z,100866.66
2023-03-03T15:11:24.558Z,100871.48
2023-03-03T15:14:05.050Z,100867.92
2023-03-03T15:16:37.566Z,100860.77
2023-03-03T15:19:34.259Z,100863.44
2023-03-03T15:22:18.357Z,100863.44
2023-03-03T15:24:58.976Z,100867.86
2023-03-03T15:27:36.197Z,100862.64
2023-03-03T15:30:18.546Z,100859.15
2023-03-03T15:32:55.924Z,100863.34
2023-03-03T15:35:41.513Z,100860.42
2023-03-03T15:38:24.704Z,100853.39
2023-03-03T15:41:06.952Z,100849.77
2023-03-03T15:43:45.298Z,100849.36
2023-03-03T15:46:28.548Z,100851.05
2023-03-03T15:49:16.267Z,100860.13
2023-03-03T15:52:05.526Z,100858.92
2023-03-03T15:54:49.351Z,100846.16
2023-03-03T15:57:31.462Z,100838.37
2023-03-03T16:00:23.830Z,100843.14
2023-03-03T16:03:02.544Z,100842.57
2023-03-03T16:05:40.913Z,100842.61
2023-03-03T16:08:17.843Z,100843.66
2023-03-03T16:11:00.568Z,100844.28
2023-03-03T16:13:48.551Z,100839.08
2023-03-03T16:16:31.016Z,100833.71
2023-03-03T16:19:14.520Z,100836.70
2023-03-03T16:22:05.396Z,100834.75
2023-03-03T16:24:46.760Z,100833.98
2023-03-03T16:27:28.206Z,100837.26
2023-03-03T16:30:21.249Z,100837.93
2023-03-03T16:32:53.074Z,100832.40
2023-03-03T16:35:28.682Z,100835.77
2023-03-03T16:38:04.902Z,100837.36
2023-03-03T16:40:46.704Z,100832.98
2023-03-03T16:43:26.692Z,100834.98
2023-03-03T16:46:06.432Z,100826.56
2023-03-03T16:48:51.527Z,100833.68
2023-03-03T16:51:37.381Z,100832.56
2023-03-03T16:54:15.441Z,100836.39
2023-03-03T16:56:56.726Z,100838.65
2023-03-03T16:59:47.572Z,100840.67
2023-03-03T17:02:46.827Z,100842.44
2023-03-03T17:05:30.478Z,100845.15
2023-03-03T17:08:24.859Z,100846.95
2023-03-03T17:11:07.497Z,100853.51
2023-03-03T17:14:06.258Z,100852.73
2023-03-03T17:16:52.928Z,100843.56
2023-03-03T17:19:44.027Z,100844.11
2023-03-03T17:22:24.609Z,100841.08
2023-03-03T17:25:06.856Z,100841.13
2023-03-03T17:27:52.419Z,100843.83
2023-03-03T17:30:31.128Z,100842.93
2023-03-03T17:33:22.327Z,100843.79
2023-03-03T17:36:09.021Z,100846.02
2023-03-03T17:38:53.406Z,100839.70
2023-03-03T17:41:32.323Z,100842.17
2023-03-03T17:44:11.477Z,100839.52
2023-03-03T17:46:48.522Z,100845.25
2023-03-03T17:49:35.259Z,100841.98
2023-03-03T17:52:27.245Z,100843.77
2023-03-03T17:55:44.459Z,100843.52
2023-03-03T17:58:42.679Z,100838.55
2023-03-03T18:01:32.126Z,100839.21
2023-03-03T18:04:27.519Z,100833.59
2023-03-03T18:07:26.467Z,100836.06
2023-03-03T18:10:23.495Z,100835.55
2023-03-03T18:13:04.517Z,100826.27
2023-03-03T18:16:12.301Z,100825.15
2023-03-03T18:19:05.480Z,100823.82
2023-03-03T18:21:44.656Z,100829.45
2023-03-03T18:24:31.554Z,100827.13
2023-03-03T18:27:30.742Z,100824.61
2023-03-03T18:30:32.796Z,100825.65
2023-03-03T18:33:11.528Z,100817.70
2023-03-03T18:35:45.599Z,100816.96
2023-03-03T18:38:34.566Z,100814.71
2023-03-03T18:41:11.181Z,100808.98
2023-03-03T18:44:01.326Z,100810.36
2023-03-03T18:46:52.791Z,100811.04
2023-03-03T18:49:59.444Z,100805.17
2023-03-03T18:52:33.105Z,100805.65
2023-03-03T18:55:26.971Z,100798.33
2023-03-03T18:58:32.424Z,100789.27
2023-03-03T19:01:15.033Z,100781.48
2023-03-03T19:04:13.291Z,100781.10
2023-03-03T19:07:10.240Z,100784.27
2023-03-03T19:09:57.088Z,100783.98
2023-03-03T19:12:52.689Z,100774.88
2023-03-03T19:15:47.759Z,100778.81
2023-03-03T19:18:27.195Z,100779.67
2023-03-03T19:21:05.679Z,100775.06
2023-03-03T19:23:59.761Z,100776.43
2023-03-03T19:26:55.502Z,100776.71
2023-03-03T19:29:59.396Z,100781.04
2023-03-03T19:32:46.080Z,100778.89
2023-03-03T19:35:29.729Z,100780.79
2023-03-03T19:38:12.752Z,100782.80
2023-03-03T19:40:53.826Z,100779.00
2023-03-03T19:43:38.374Z,100779.55
2023-03-03T19:46:38.767Z,100766.63
2023-03-03T19:49:25.518Z,100776.11
2023-03-03T19:52:06.590Z,100776.88
2023-03-03T19:54:54.473Z,100769.73
2023-03-03T19:57:44.556Z,100777.42
2023-03-03T20:00:25.936Z,100769.02
2023-03-03T20:03:29.002Z,100773.76
2023-03-03T20:06:12.105Z,100766.23
2023-03-03T20:08:51.025Z,100761.35
2023-03-03T20:11:37.954Z,100746.91
2023-03-03T20:14:22.127Z,100748.42
2023-03-03T20:17:02.674Z,100742.89
2023-03-03T20:19:51.428Z,100738.73
2023-03-03T20:22:36.554Z,100733.38
2023-03-03T20:25:24.337Z,100733.23
2023-03-03T20:28:06.975Z,100722.52
2023-03-03T20:30:55.069Z,100724.51
2023-03-03T20:33:45.097Z,100721.35
2023-03-03T20:36:26.802Z,100717.09
2023-03-03T20:39:07.641Z,100710.33
2023-03-03T20:41:59.708Z,100707.48
2023-03-03T20:44:48.069Z,100704.96
2023-03-03T20:47:31.792Z,100703.54
2023-03-03T20:50:16.213Z,100698.23
2023-03-03T20:53:07.738Z,100702.38
2023-03-03T20:55:53.142Z,100699.59
2023-03-03T20:58:35.089Z,100696.53
2023-03-03T21:01:10.356Z,100691.38
2023-03-03T21:03:46.435Z,100685.83
2023-03-03T21:06:20.904Z,100682.23
2023-03-03T21:08:54.713Z,100681.61
2023-03-03T21:11:41.653Z,100682.98
2023-03-03T21:14:20.863Z,100675.23
2023-03-03T21:16:56.507Z,100671.55
2023-03-03T21:19:30.472Z,100673.70
2023-03-03T21:22:04.600Z,100666.61
2023-03-03T21:24:54.578Z,100664.15
2023-03-03T21:27:31.542Z,100657.02
2023-03-03T21:30:09.303Z,100659.19
2023-03-03T21:32:44.823Z,100660.48
2023-03-03T21:35:21.585Z,100661.77
2023-03-03T21:37:54.699Z,100652.55
2023-03-03T21:40:28.639Z,100651.01
2023-03-03T21:43:01.980Z,100641.96
2023-03-03T21:45:34.207Z,100638.05
2023-03-03T21:48:08.267Z,100629.30
2023-03-03T21:50:42.746Z,100619.33
2023-03-03T21:53:14.604Z,100609.55
2023-03-03T21:55:48.885Z,100596.09
2023-03-03T21:58:20.898Z,100591.63
2023-03-03T22:00:52.764Z,100582.10
2023-03-03T22:03:26.032Z,100574.88
2023-03-03T22:05:57.964Z,100572.63
2023-03-03T22:08:29.960Z,100567.30
2023-03-03T22:11:01.761Z,100557.92
2023-03-03T22:13:33.514Z,100557.40
2023-03-03T22:16:07.659Z,100549.53
2023-03-03T22:18:39.466Z,100548.14
2023-03-03T22:21:11.273Z,100553.33
2023-03-03T22:23:43.121Z,100551.02
2023-03-03T22:26:14.904Z,100541.56
2023-03-03T22:28:46.847Z,100528.40
2023-03-03T22:31:18.933Z,100519.70
2023-03-03T22:33:51.846Z,100523.80
2023-03-03T22:36:23.746Z,100518.64
2023-03-03T22:38:55.550Z,100508.10
2023-03-03T22:41:27.603Z,100502.93
2023-03-03T22:43:59.332Z,100497.42
2023-03-03T22:46:31.095Z,100491.88
2023-03-03T22:49:02.909Z,100487.92
2023-03-03T22:51:34.711Z,100487.55
2023-03-03T22:54:07.145Z,100488.02
2023-03-03T22:56:38.876Z,100487.43
2023-03-03T22:59:10.684Z,100492.23
2023-03-03T23:01:42.432Z,100495.64
2023-03-03T23:04:14.847Z,100496.31
2023-03-03T23:06:46.815Z,100495.77
2023-03-03T23:09:18.481Z,100501.14
2023-03-03T23:11:50.219Z,100498.67
2023-03-03T23:14:21.949Z,100503.50
2023-03-03T23:16:53.705Z,100503.52
2023-03-03T23:19:25.671Z,100505.90
2023-03-03T23:21:57.402Z,100502.14
2023-03-03T23:24:29.753Z,100503.38
2023-03-03T23:27:01.516Z,100501.80
2023-03-03T23:29:33.590Z,100502.01
2023-03-03T23:32:06.966Z,100493.80
2023-03-03T23:34:39.147Z,100489.89
2023-03-03T23:37:11.036Z,100479.73
2023-03-03T23:39:42.718Z,100487.39
2023-03-03T23:42:15.400Z,100483.84
2023-03-03T23:44:47.218Z,100477.77
2023-03-03T23:47:19.028Z,100475.98
2023-03-03T23:49:50.925Z,100472.11
2023-03-03T23:52:22.741Z,100470.13
2023-03-03T23:54:54.525Z,100469.78
2023-03-03T23:57:26.235Z,100466.58
2023-03-03T23:59:58.353Z,100464.64
